createdAt,value
2018-08-25T00:01:41.553Z,99355.09
2018-08-25T00:04:26.450Z,99360.34
2018-08-25T00:07:11.256Z,99361.86
2018-08-25T00:09:56.061Z,99359.33
2018-08-25T00:12:40.794Z,99351.25
2018-08-25T00:15:25.620Z,99352.58
2018-08-25T00:18:11.464Z,99351.75
2018-08-25T00:20:56.353Z,99353.22
2018-08-25T00:23:41.399Z,99362.59
2018-08-25T00:26:26.143Z,99342.61
2018-08-25T00:29:11.121Z,99341.53
2018-08-25T00:31:55.922Z,99336.11
2018-08-25T00:34:40.833Z,99330.98
2018-08-25T00:37:25.636Z,99329.63
2018-08-25T00:40:10.560Z,99339.90
2018-08-25T00:42:55.329Z,99333.32
2018-08-25T00:45:40.206Z,99335.87
2018-08-25T00:48:25.184Z,99335.09
2018-08-25T00:51:10.045Z,99337.84
2018-08-25T00:53:54.840Z,99333.08
2018-08-25T00:56:39.926Z,99330.80
2018-08-25T00:59:24.884Z,99334.68
2018-08-25T01:02:09.720Z,99330.41
2018-08-25T01:04:54.862Z,99334.12
2018-08-25T01:07:39.715Z,99336.77
2018-08-25T01:10:24.678Z,99322.48
2018-08-25T01:13:09.904Z,99323.48
2018-08-25T01:15:54.707Z,99327.05
2018-08-25T01:18:39.588Z,99328.16
2018-08-25T01:21:24.343Z,99331.66
2018-08-25T01:24:09.147Z,99330.45
2018-08-25T01:26:53.959Z,99344.28
2018-08-25T01:29:38.722Z,99336.38
2018-08-25T01:32:23.548Z,99342.37
2018-08-25T01:35:08.348Z,99344.46
2018-08-25T01:37:53.077Z,99337.91
2018-08-25T01:40:37.838Z,99331.75
2018-08-25T01:43:22.680Z,99334.95
2018-08-25T01:46:07.562Z,99339.55
2018-08-25T01:48:52.337Z,99334.72
2018-08-25T01:51:37.112Z,99332.24
2018-08-25T01:54:21.913Z,99327.36
2018-08-25T01:57:06.703Z,99326.63
2018-08-25T01:59:51.619Z,99328.97
2018-08-25T02:02:36.403Z,99328.20
2018-08-25T02:05:21.176Z,99322.03
2018-08-25T02:08:06.406Z,99322.97
2018-08-25T02:10:51.314Z,99319.89
2018-08-25T02:13:36.090Z,99313.30
2018-08-25T02:16:20.958Z,99303.78
2018-08-25T02:19:06.139Z,99308.75
2018-08-25T02:21:51.232Z,99309.84
2018-08-25T02:24:36.021Z,99305.73
2018-08-25T02:27:20.788Z,99302.77
2018-08-25T02:30:05.886Z,99302.34
2018-08-25T02:32:50.661Z,99303.52
2018-08-25T02:35:35.530Z,99303.67
2018-08-25T02:38:20.238Z,99301.34
2018-08-25T02:41:05.426Z,99285.19
2018-08-25T02:43:50.194Z,99288.30
2018-08-25T02:46:35.148Z,99285.01
2018-08-25T02:49:19.946Z,99286.08
2018-08-25T02:52:04.713Z,99287.27
2018-08-25T02:54:49.424Z,99280.39
2018-08-25T02:57:34.230Z,99276.17
2018-08-25T03:00:19.061Z,99282.88
2018-08-25T03:03:03.852Z,99275.13
2018-08-25T03:05:48.622Z,99270.92
2018-08-25T03:08:33.387Z,99269.84
2018-08-25T03:11:18.176Z,99276.23
2018-08-25T03:14:02.887Z,99275.43
2018-08-25T03:16:47.804Z,99274.94
2018-08-25T03:19:32.639Z,99280.17
2018-08-25T03:22:17.351Z,99278.03
2018-08-25T03:25:02.134Z,99278.03
2018-08-25T03:27:46.867Z,99283.16
2018-08-25T03:30:31.678Z,99282.02
2018-08-25T03:33:16.707Z,99279.52
2018-08-25T03:36:01.389Z,99278.55
2018-08-25T03:38:46.112Z,99269.69
2018-08-25T03:41:30.933Z,99265.73
2018-08-25T03:44:15.691Z,99270.13
2018-08-25T03:47:00.403Z,99272.50
2018-08-25T03:49:45.226Z,99272.17
2018-08-25T03:52:30.079Z,99276.30
2018-08-25T03:55:14.944Z,99278.82
2018-08-25T03:57:59.700Z,99283.73
2018-08-25T04:00:44.545Z,99283.36
2018-08-25T04:03:29.367Z,99282.85
2018-08-25T04:06:14.151Z,99279.56
2018-08-25T04:08:59.167Z,99276.81
2018-08-25T04:11:43.996Z,99277.41
2018-08-25T04:14:28.747Z,99262.61
2018-08-25T04:17:13.676Z,99251.56
2018-08-25T04:19:58.565Z,99255.75
2018-08-25T04:22:43.281Z,99247.11
2018-08-25T04:25:28.072Z,99255.44
2018-08-25T04:28:12.885Z,99243.52
2018-08-25T04:30:57.659Z,99244.92
2018-08-25T04:33:42.464Z,99253.95
2018-08-25T04:36:27.317Z,99256.73
2018-08-25T04:39:12.875Z,99258.20
2018-08-25T04:41:57.781Z,99264.23
2018-08-25T04:44:42.760Z,99266.58
2018-08-25T04:47:27.473Z,99266.61
2018-08-25T04:50:12.286Z,99266.08
2018-08-25T04:52:57.032Z,99260.09
2018-08-25T04:55:41.887Z,99256.69
2018-08-25T04:58:26.771Z,99256.20
2018-08-25T05:01:14.505Z,99256.98
2018-08-25T05:03:59.339Z,99262.68
2018-08-25T05:06:44.202Z,99261.09
2018-08-25T05:09:29.040Z,99262.25
2018-08-25T05:12:13.798Z,99265.58
2018-08-25T05:14:58.794Z,99260.34
2018-08-25T05:17:43.668Z,99256.41
2018-08-25T05:20:28.437Z,99262.50
2018-08-25T05:23:13.224Z,99265.10
2018-08-25T05:25:58.003Z,99264.48
2018-08-25T05:28:42.793Z,99260.45
2018-08-25T05:31:27.524Z,99256.13
2018-08-25T05:34:12.350Z,99251.92
2018-08-25T05:36:57.166Z,99259.95
2018-08-25T05:39:42.046Z,99260.36
2018-08-25T05:42:27.062Z,99263.55
2018-08-25T05:45:11.846Z,99259.83
2018-08-25T05:47:56.657Z,99269.87
2018-08-25T05:50:41.463Z,99267.90
2018-08-25T05:53:26.254Z,99263.93
2018-08-25T05:56:11.067Z,99270.41
2018-08-25T05:58:55.834Z,99265.57
2018-08-25T06:01:40.628Z,99262.66
2018-08-25T06:04:25.454Z,99255.66
2018-08-25T06:07:10.252Z,99257.86
2018-08-25T06:09:55.181Z,99259.31
2018-08-25T06:12:40.077Z,99257.95
2018-08-25T06:15:24.853Z,99252.84
2018-08-25T06:18:09.744Z,99256.22
2018-08-25T06:20:54.583Z,99259.95
2018-08-25T06:23:39.428Z,99250.88
2018-08-25T06:26:24.189Z,99251.52
2018-08-25T06:29:08.970Z,99254.73
2018-08-25T06:31:53.803Z,99251.00
2018-08-25T06:34:38.528Z,99257.23
2018-08-25T06:37:23.371Z,99247.66
2018-08-25T06:40:08.371Z,99247.12
2018-08-25T06:42:53.202Z,99238.94
2018-08-25T06:45:37.964Z,99239.12
2018-08-25T06:48:22.750Z,99237.06
2018-08-25T06:51:07.637Z,99237.86
2018-08-25T06:53:52.436Z,99230.48
2018-08-25T06:56:37.214Z,99231.02
2018-08-25T06:59:22.070Z,99234.00
2018-08-25T07:02:06.960Z,99240.13
2018-08-25T07:04:51.815Z,99240.73
2018-08-25T07:07:36.926Z,99248.14
2018-08-25T07:10:21.763Z,99249.55
2018-08-25T07:13:06.734Z,99252.17
2018-08-25T07:15:51.636Z,99240.58
2018-08-25T07:18:36.482Z,99247.70
2018-08-25T07:21:21.333Z,99240.10
2018-08-25T07:24:06.177Z,99241.75
2018-08-25T07:26:50.954Z,99238.05
2018-08-25T07:29:35.692Z,99242.91
2018-08-25T07:32:20.552Z,99247.88
2018-08-25T07:35:05.548Z,99252.67
2018-08-25T07:37:50.364Z,99254.27
2018-08-25T07:40:35.267Z,99256.14
2018-08-25T07:43:19.966Z,99257.19
2018-08-25T07:46:04.991Z,99260.15
2018-08-25T07:48:49.798Z,99266.71
2018-08-25T07:51:34.719Z,99274.69
2018-08-25T07:54:19.600Z,99279.27
2018-08-25T07:57:04.345Z,99282.47
2018-08-25T07:59:49.200Z,99286.27
2018-08-25T08:02:34.069Z,99286.97
2018-08-25T08:05:18.875Z,99291.65
2018-08-25T08:08:03.643Z,99298.86
2018-08-25T08:10:48.447Z,99295.11
2018-08-25T08:13:33.197Z,99293.01
2018-08-25T08:16:18.086Z,99300.28
2018-08-25T08:19:02.968Z,99293.56
2018-08-25T08:21:47.786Z,99298.71
2018-08-25T08:24:32.634Z,99300.72
2018-08-25T08:27:17.669Z,99299.03
2018-08-25T08:30:02.510Z,99303.01
2018-08-25T08:32:47.361Z,99302.23
2018-08-25T08:35:32.108Z,99301.89
2018-08-25T08:38:16.990Z,99308.63
2018-08-25T08:41:01.897Z,99313.49
2018-08-25T08:43:46.680Z,99320.62
2018-08-25T08:46:36.442Z,99321.00
2018-08-25T08:49:21.231Z,99325.91
2018-08-25T08:52:06.169Z,99321.92
2018-08-25T08:54:51.042Z,99326.12
2018-08-25T08:57:35.855Z,99323.13
2018-08-25T09:00:20.721Z,99325.55
2018-08-25T09:03:05.694Z,99331.34
2018-08-25T09:05:50.861Z,99335.75
2018-08-25T09:08:35.657Z,99334.88
2018-08-25T09:11:20.664Z,99327.63
2018-08-25T09:14:05.611Z,99338.95
2018-08-25T09:16:50.508Z,99336.98
2018-08-25T09:19:35.360Z,99329.21
2018-08-25T09:22:20.190Z,99323.30
2018-08-25T09:25:05.080Z,99332.48
2018-08-25T09:27:49.900Z,99326.08
2018-08-25T09:30:34.674Z,99320.94
2018-08-25T09:33:19.524Z,99310.80
2018-08-25T09:36:04.460Z,99321.03
2018-08-25T09:38:49.465Z,99309.53
2018-08-25T09:41:34.238Z,99325.25
2018-08-25T09:44:19.061Z,99326.11
2018-08-25T09:47:03.832Z,99325.11
2018-08-25T09:49:48.659Z,99336.77
2018-08-25T09:52:33.442Z,99323.84
2018-08-25T09:55:18.208Z,99338.11
2018-08-25T09:58:03.116Z,99318.05
2018-08-25T10:00:52.044Z,99324.67
2018-08-25T10:03:36.833Z,99328.70
2018-08-25T10:06:21.635Z,99326.08
2018-08-25T10:09:09.164Z,99329.31
2018-08-25T10:11:54.220Z,99325.18
2018-08-25T10:14:38.969Z,99320.83
2018-08-25T10:17:23.831Z,99321.39
2018-08-25T10:20:08.707Z,99322.48
2018-08-25T10:22:53.538Z,99316.48
2018-08-25T10:25:38.336Z,99321.96
2018-08-25T10:28:23.184Z,99316.19
2018-08-25T10:31:08.108Z,99316.45
2018-08-25T10:33:52.967Z,99314.25
2018-08-25T10:36:37.856Z,99314.75
2018-08-25T10:39:22.591Z,99310.36
2018-08-25T10:42:09.113Z,99317.61
2018-08-25T10:44:53.965Z,99310.28
2018-08-25T10:47:38.931Z,99304.60
2018-08-25T10:50:23.836Z,99313.46
2018-08-25T10:53:08.748Z,99306.66
2018-08-25T10:55:53.615Z,99310.09
2018-08-25T10:58:38.501Z,99301.90
2018-08-25T11:01:23.387Z,99307.91
2018-08-25T11:04:08.238Z,99301.31
2018-08-25T11:06:53.086Z,99294.22
2018-08-25T11:09:37.947Z,99289.75
2018-08-25T11:12:23.004Z,99300.06
2018-08-25T11:15:07.906Z,99306.20
2018-08-25T11:17:52.770Z,99299.68
2018-08-25T11:20:37.643Z,99294.38
2018-08-25T11:23:22.467Z,99302.76
2018-08-25T11:26:07.423Z,99301.02
2018-08-25T11:28:52.317Z,99297.72
2018-08-25T11:31:37.226Z,99294.41
2018-08-25T11:34:22.055Z,99295.30
2018-08-25T11:37:07.557Z,99301.69
2018-08-25T11:39:52.325Z,99295.18
2018-08-25T11:42:37.120Z,99291.85
2018-08-25T11:45:21.947Z,99295.09
2018-08-25T11:48:06.804Z,99299.02
2018-08-25T11:50:51.640Z,99303.44
2018-08-25T11:53:36.398Z,99313.47
2018-08-25T11:56:21.170Z,99321.09
2018-08-25T11:59:06.045Z,99333.25
2018-08-25T12:01:50.930Z,99337.86
2018-08-25T12:04:35.773Z,99346.75
2018-08-25T12:07:20.737Z,99346.53
2018-08-25T12:10:05.902Z,99334.77
2018-08-25T12:12:50.700Z,99333.89
2018-08-25T12:15:35.545Z,99321.86
2018-08-25T12:18:20.396Z,99321.72
2018-08-25T12:21:05.204Z,99323.25
2018-08-25T12:23:49.971Z,99315.20
2018-08-25T12:26:35.146Z,99321.45
2018-08-25T12:29:19.893Z,99319.53
2018-08-25T12:32:04.746Z,99313.67
2018-08-25T12:34:49.552Z,99308.06
2018-08-25T12:37:34.332Z,99311.20
2018-08-25T12:40:20.075Z,99317.97
2018-08-25T12:43:05.062Z,99319.48
2018-08-25T12:45:49.899Z,99314.41
2018-08-25T12:49:58.459Z,99326.14
2018-08-25T12:53:03.459Z,99321.72
2018-08-25T12:56:08.356Z,99321.44
2018-08-25T12:59:13.123Z,99316.77
2018-08-25T13:02:18.040Z,99309.70
2018-08-25T13:05:22.740Z,99310.31
2018-08-25T13:08:27.534Z,99313.23
2018-08-25T13:11:32.398Z,99305.48
2018-08-25T13:14:37.235Z,99303.11
2018-08-25T13:17:41.981Z,99301.52
2018-08-25T13:20:46.732Z,99302.84
2018-08-25T13:23:51.612Z,99305.05
2018-08-25T13:26:56.519Z,99297.95
2018-08-25T13:30:01.321Z,99295.52
2018-08-25T13:33:06.223Z,99296.00
2018-08-25T13:36:11.048Z,99290.28
2018-08-25T13:39:16.833Z,99290.32
2018-08-25T13:42:21.911Z,99292.74
2018-08-25T13:45:26.818Z,99289.04
2018-08-25T13:48:31.616Z,99292.55
2018-08-25T13:51:36.524Z,99295.27
2018-08-25T13:54:41.692Z,99295.56
2018-08-25T13:57:46.520Z,99295.13
2018-08-25T14:00:51.339Z,99291.28
2018-08-25T14:03:56.412Z,99287.81
2018-08-25T14:07:01.424Z,99292.87
2018-08-25T14:10:06.447Z,99291.13
2018-08-25T14:13:11.298Z,99290.83
2018-08-25T14:16:16.340Z,99287.76
2018-08-25T14:19:21.127Z,99286.67
2018-08-25T14:22:25.912Z,99295.48
2018-08-25T14:25:30.719Z,99285.37
2018-08-25T14:28:35.684Z,99273.16
2018-08-25T14:31:40.502Z,99278.87
2018-08-25T14:34:45.346Z,99279.52
2018-08-25T14:37:50.288Z,99288.39
2018-08-25T14:40:55.056Z,99289.73
2018-08-25T14:43:59.859Z,99284.23
2018-08-25T14:47:04.807Z,99285.23
2018-08-25T14:50:09.653Z,99283.92
2018-08-25T14:53:14.683Z,99284.05
2018-08-25T14:56:19.798Z,99280.66
2018-08-25T14:59:24.656Z,99296.11
2018-08-25T15:02:29.510Z,99299.91
2018-08-25T15:05:34.392Z,99296.73
2018-08-25T15:08:39.180Z,99300.34
2018-08-25T15:11:45.165Z,99296.11
2018-08-25T15:14:49.957Z,99299.19
2018-08-25T15:17:54.862Z,99308.13
2018-08-25T15:20:59.628Z,99303.00
2018-08-25T15:24:04.334Z,99307.08
2018-08-25T15:27:09.190Z,99308.33
2018-08-25T15:30:14.051Z,99305.55
2018-08-25T15:33:18.796Z,99313.09
2018-08-25T15:36:23.585Z,99308.03
2018-08-25T15:39:28.320Z,99321.23
2018-08-25T15:42:33.094Z,99310.01
2018-08-25T15:45:37.962Z,99317.00
2018-08-25T15:48:42.842Z,99319.48
2018-08-25T15:51:47.629Z,99317.33
2018-08-25T15:54:52.598Z,99324.77
2018-08-25T15:57:57.653Z,99326.89
2018-08-25T16:01:02.370Z,99324.30
2018-08-25T16:04:07.483Z,99328.53
2018-08-25T16:07:12.387Z,99332.63
2018-08-25T16:10:17.262Z,99328.34
2018-08-25T16:13:22.140Z,99336.33
2018-08-25T16:16:26.899Z,99333.10
2018-08-25T16:19:31.657Z,99337.72
2018-08-25T16:22:36.495Z,99336.77
2018-08-25T16:25:41.328Z,99339.30
2018-08-25T16:28:46.125Z,99341.00
2018-08-25T16:31:50.973Z,99344.53
2018-08-25T16:34:55.761Z,99346.21
2018-08-25T16:38:00.668Z,99348.10
2018-08-25T16:41:05.474Z,99348.94
2018-08-25T16:44:10.324Z,99354.11
2018-08-25T16:47:15.177Z,99357.87
2018-08-25T16:50:20.159Z,99359.81
2018-08-25T16:53:24.983Z,99354.91
2018-08-25T16:56:29.786Z,99363.08
2018-08-25T16:59:34.662Z,99356.55
2018-08-25T17:02:39.488Z,99364.40
2018-08-25T17:05:44.273Z,99366.55
2018-08-25T17:08:49.032Z,99366.45
2018-08-25T17:11:53.926Z,99358.56
2018-08-25T17:14:58.719Z,99363.43
2018-08-25T17:18:03.645Z,99370.63
2018-08-25T17:21:08.533Z,99377.63
2018-08-25T17:24:13.394Z,99378.53
2018-08-25T17:27:18.200Z,99374.70
2018-08-25T17:30:23.029Z,99380.78
2018-08-25T17:33:28.031Z,99384.97
2018-08-25T17:36:32.836Z,99384.13
2018-08-25T17:39:37.768Z,99394.16
2018-08-25T17:42:42.563Z,99390.17
2018-08-25T17:45:47.356Z,99388.59
2018-08-25T17:48:52.184Z,99391.16
2018-08-25T17:51:56.921Z,99389.09
2018-08-25T17:55:01.735Z,99396.23
2018-08-25T17:58:06.713Z,99405.38
2018-08-25T18:01:11.576Z,99402.67
2018-08-25T18:04:16.506Z,99401.82
2018-08-25T18:07:21.350Z,99421.17
2018-08-25T18:10:26.216Z,99421.44
2018-08-25T18:13:31.196Z,99432.59
2018-08-25T18:16:36.031Z,99436.34
2018-08-25T18:19:40.840Z,99437.47
2018-08-25T18:22:45.827Z,99445.41
2018-08-25T18:25:50.735Z,99451.03
2018-08-25T18:28:55.600Z,99464.88
2018-08-25T18:32:00.572Z,99460.02
2018-08-25T18:35:05.538Z,99467.17
2018-08-25T18:38:10.362Z,99478.28
2018-08-25T18:41:15.141Z,99480.59
2018-08-25T18:44:20.190Z,99487.36
2018-08-25T18:47:25.065Z,99506.28
2018-08-25T18:50:30.927Z,99504.77
2018-08-25T18:53:35.792Z,99509.12
2018-08-25T18:56:40.648Z,99512.59
2018-08-25T18:59:45.387Z,99518.81
2018-08-25T19:02:50.197Z,99530.65
2018-08-25T19:05:55.208Z,99531.44
2018-08-25T19:09:00.152Z,99536.34
2018-08-25T19:12:05.020Z,99537.13
2018-08-25T19:15:09.976Z,99540.35
2018-08-25T19:18:14.965Z,99544.61
2018-08-25T19:21:19.834Z,99551.58
2018-08-25T19:24:24.729Z,99561.03
2018-08-25T19:27:29.470Z,99557.75
2018-08-25T19:30:34.396Z,99569.15
2018-08-25T19:33:39.944Z,99566.23
2018-08-25T19:36:44.815Z,99570.66
2018-08-25T19:39:49.693Z,99581.30
2018-08-25T19:42:54.945Z,99581.44
2018-08-25T19:45:59.822Z,99584.13
2018-08-25T19:49:04.684Z,99582.55
2018-08-25T19:52:09.495Z,99581.25
2018-08-25T19:55:15.209Z,99596.06
2018-08-25T19:58:20.133Z,99590.95
2018-08-25T20:01:25.199Z,99599.58
2018-08-25T20:04:30.067Z,99598.64
2018-08-25T20:07:34.891Z,99598.03
2018-08-25T20:10:39.764Z,99607.40
2018-08-25T20:13:44.732Z,99611.61
2018-08-25T20:16:49.529Z,99612.68
2018-08-25T20:19:54.363Z,99611.13
2018-08-25T20:22:59.305Z,99616.48
2018-08-25T20:26:04.175Z,99621.94
2018-08-25T20:29:10.027Z,99617.48
2018-08-25T20:32:17.248Z,99628.09
2018-08-25T20:35:22.208Z,99634.17
2018-08-25T20:38:27.058Z,99640.22
2018-08-25T20:41:31.984Z,99649.40
2018-08-25T20:44:36.852Z,99653.34
2018-08-25T20:47:41.900Z,99647.49
2018-08-25T20:50:46.620Z,99652.16
2018-08-25T20:53:51.490Z,99642.82
2018-08-25T20:56:56.446Z,99647.77
2018-08-25T21:00:01.364Z,99668.45
2018-08-25T21:03:06.256Z,99671.22
2018-08-25T21:06:11.099Z,99672.47
2018-08-25T21:09:15.989Z,99675.55
2018-08-25T21:12:20.832Z,99675.67
2018-08-25T21:15:25.742Z,99672.56
2018-08-25T21:18:30.627Z,99673.97
2018-08-25T21:21:35.581Z,99675.05
2018-08-25T21:24:40.489Z,99681.22
2018-08-25T21:27:45.377Z,99683.52
2018-08-25T21:30:50.237Z,99684.80
2018-08-25T21:33:55.550Z,99693.47
2018-08-25T21:37:00.560Z,99698.02
2018-08-25T21:40:05.515Z,99697.94
2018-08-25T21:43:10.417Z,99700.33
2018-08-25T21:46:15.392Z,99699.81
2018-08-25T21:49:20.132Z,99699.89
2018-08-25T21:52:24.948Z,99706.42
2018-08-25T21:55:30.091Z,99713.36
2018-08-25T21:58:36.627Z,99718.33
2018-08-25T22:01:41.410Z,99714.83
2018-08-25T22:04:46.660Z,99716.45
2018-08-25T22:07:51.474Z,99721.44
2018-08-25T22:10:56.356Z,99719.89
2018-08-25T22:14:01.138Z,99722.58
2018-08-25T22:17:06.363Z,99719.67
2018-08-25T22:20:11.157Z,99717.73
2018-08-25T22:23:16.129Z,99727.03
2018-08-25T22:26:20.936Z,99729.30
2018-08-25T22:29:25.842Z,99732.30
2018-08-25T22:32:30.693Z,99728.48
2018-08-25T22:35:35.481Z,99725.39
2018-08-25T22:38:40.373Z,99730.55
2018-08-25T22:41:45.291Z,99720.41
2018-08-25T22:44:50.116Z,99730.11
2018-08-25T22:47:54.891Z,99731.47
2018-08-25T22:50:59.744Z,99729.69
2018-08-25T22:54:04.592Z,99734.81
2018-08-25T22:57:09.370Z,99740.81
2018-08-25T23:00:14.343Z,99745.33
2018-08-25T23:03:19.103Z,99741.82
2018-08-25T23:06:23.987Z,99742.30
2018-08-25T23:09:28.866Z,99742.94
2018-08-25T23:12:34.368Z,99742.45
2018-08-25T23:15:39.134Z,99741.37
2018-08-25T23:18:44.021Z,99746.44
2018-08-25T23:21:48.806Z,99745.86
2018-08-25T23:24:53.571Z,99750.77
2018-08-25T23:27:58.501Z,99741.09
2018-08-25T23:31:03.194Z,99739.14
2018-08-25T23:34:07.959Z,99743.53
2018-08-25T23:37:13.036Z,99740.22
2018-08-25T23:40:18.031Z,99741.94
2018-08-25T23:43:22.788Z,99751.92
2018-08-25T23:46:27.550Z,99755.31
2018-08-25T23:49:32.413Z,99754.91
2018-08-25T23:52:37.867Z,99757.93
2018-08-25T23:55:42.661Z,99751.78
2018-08-25T23:58:47.823Z,99758.88
